sensor_id;sensor_type;location;lat;lon;timestamp;pressure;altitude;pressure_sealevel;temperature;humidity
13705;BME280;6924;52.122;9.952;2022-07-23T00:00:11;100791.94;;;16.03;93.40
13705;BME280;6924;52.122;9.952;2022-07-23T00:02:37;100782.66;;;16.06;93.66
13705;BME280;6924;52.122;9.952;2022-07-23T00:05:04;100774.66;;;16.00;93.82
13705;BME280;6924;52.122;9.952;2022-07-23T00:07:31;100782.41;;;15.99;93.60
13705;BME280;6924;52.122;9.952;2022-07-23T00:09:57;100789.41;;;16.02;93.31
13705;BME280;6924;52.122;9.952;2022-07-23T00:12:24;100788.72;;;16.05;92.74
13705;BME280;6924;52.122;9.952;2022-07-23T00:14:50;100784.53;;;16.02;92.85
13705;BME280;6924;52.122;9.952;2022-07-23T00:17:18;100786.41;;;15.98;92.93
13705;BME280;6924;52.122;9.952;2022-07-23T00:19:44;100780.16;;;15.84;94.21
13705;BME280;6924;52.122;9.952;2022-07-23T00:22:11;100790.78;;;15.96;93.65
13705;BME280;6924;52.122;9.952;2022-07-23T00:24:37;100777.03;;;15.98;92.71
13705;BME280;6924;52.122;9.952;2022-07-23T00:27:04;100787.28;;;15.99;92.20
13705;BME280;6924;52.122;9.952;2022-07-23T00:29:30;100791.44;;;16.01;91.61
13705;BME280;6924;52.122;9.952;2022-07-23T00:31:57;100794.28;;;16.01;91.15
13705;BME280;6924;52.122;9.952;2022-07-23T00:34:25;100792.97;;;15.99;90.32
13705;BME280;6924;52.122;9.952;2022-07-23T00:36:51;100797.00;;;15.98;90.91
13705;BME280;6924;52.122;9.952;2022-07-23T00:39:18;100783.78;;;15.93;91.40
13705;BME280;6924;52.122;9.952;2022-07-23T00:41:46;100777.78;;;15.86;91.41
13705;BME280;6924;52.122;9.952;2022-07-23T00:44:20;100777.50;;;15.79;91.43
13705;BME280;6924;52.122;9.952;2022-07-23T00:46:49;100783.72;;;15.81;91.44
13705;BME280;6924;52.122;9.952;2022-07-23T00:49:18;100788.75;;;15.75;92.01
13705;BME280;6924;52.122;9.952;2022-07-23T00:51:46;100785.06;;;15.75;92.16
13705;BME280;6924;52.122;9.952;2022-07-23T00:54:13;100797.50;;;15.70;92.63
13705;BME280;6924;52.122;9.952;2022-07-23T00:56:41;100793.63;;;15.75;92.49
13705;BME280;6924;52.122;9.952;2022-07-23T00:59:09;100791.94;;;15.74;92.44
13705;BME280;6924;52.122;9.952;2022-07-23T01:01:35;100789.94;;;15.74;92.27
13705;BME280;6924;52.122;9.952;2022-07-23T01:04:02;100790.78;;;15.75;92.17
13705;BME280;6924;52.122;9.952;2022-07-23T01:06:29;100791.13;;;15.73;92.67
13705;BME280;6924;52.122;9.952;2022-07-23T01:08:58;100794.63;;;15.70;93.62
13705;BME280;6924;52.122;9.952;2022-07-23T01:11:24;100773.19;;;15.73;93.80
13705;BME280;6924;52.122;9.952;2022-07-23T01:13:51;100753.56;;;15.71;94.14
13705;BME280;6924;52.122;9.952;2022-07-23T01:16:17;100746.50;;;15.68;94.05
13705;BME280;6924;52.122;9.952;2022-07-23T01:18:44;100751.56;;;15.63;95.00
13705;BME280;6924;52.122;9.952;2022-07-23T01:21:11;100755.38;;;15.67;94.71
13705;BME280;6924;52.122;9.952;2022-07-23T01:23:40;100749.06;;;15.61;95.18
13705;BME280;6924;52.122;9.952;2022-07-23T01:26:06;100738.81;;;15.60;94.85
13705;BME280;6924;52.122;9.952;2022-07-23T01:28:33;100735.69;;;15.53;95.35
13705;BME280;6924;52.122;9.952;2022-07-23T01:30:59;100730.69;;;15.50;95.33
13705;BME280;6924;52.122;9.952;2022-07-23T01:33:26;100738.03;;;15.51;95.06
13705;BME280;6924;52.122;9.952;2022-07-23T01:35:52;100724.78;;;15.55;94.34
13705;BME280;6924;52.122;9.952;2022-07-23T01:38:19;100733.19;;;15.52;94.39
13705;BME280;6924;52.122;9.952;2022-07-23T01:40:46;100721.09;;;15.55;94.19
13705;BME280;6924;52.122;9.952;2022-07-23T01:43:13;100728.94;;;15.58;93.99
13705;BME280;6924;52.122;9.952;2022-07-23T01:45:39;100717.06;;;15.56;94.09
13705;BME280;6924;52.122;9.952;2022-07-23T01:48:07;100726.66;;;15.51;93.80
13705;BME280;6924;52.122;9.952;2022-07-23T01:50:33;100716.97;;;15.43;94.28
13705;BME280;6924;52.122;9.952;2022-07-23T01:53:00;100722.81;;;15.47;94.04
13705;BME280;6924;52.122;9.952;2022-07-23T01:55:26;100725.00;;;15.50;93.23
13705;BME280;6924;52.122;9.952;2022-07-23T01:57:54;100728.34;;;15.52;93.19
13705;BME280;6924;52.122;9.952;2022-07-23T02:00:20;100735.69;;;15.53;92.83
13705;BME280;6924;52.122;9.952;2022-07-23T02:02:47;100738.38;;;15.49;93.24
13705;BME280;6924;52.122;9.952;2022-07-23T02:05:14;100745.78;;;15.50;93.18
13705;BME280;6924;52.122;9.952;2022-07-23T02:07:40;100738.75;;;15.48;93.16
13705;BME280;6924;52.122;9.952;2022-07-23T02:10:07;100731.34;;;15.47;92.88
13705;BME280;6924;52.122;9.952;2022-07-23T02:12:34;100737.06;;;15.47;92.92
13705;BME280;6924;52.122;9.952;2022-07-23T02:15:02;100724.84;;;15.46;92.96
13705;BME280;6924;52.122;9.952;2022-07-23T02:17:29;100730.88;;;15.45;92.92
13705;BME280;6924;52.122;9.952;2022-07-23T02:19:56;100734.41;;;15.42;93.49
13705;BME280;6924;52.122;9.952;2022-07-23T02:22:22;100731.06;;;15.40;93.44
13705;BME280;6924;52.122;9.952;2022-07-23T02:24:48;100735.56;;;15.41;93.64
13705;BME280;6924;52.122;9.952;2022-07-23T02:27:15;100735.09;;;15.39;94.28
13705;BME280;6924;52.122;9.952;2022-07-23T02:29:41;100741.78;;;15.43;94.08
13705;BME280;6924;52.122;9.952;2022-07-23T02:32:09;100740.94;;;15.42;94.20
13705;BME280;6924;52.122;9.952;2022-07-23T02:34:35;100742.47;;;15.40;94.65
13705;BME280;6924;52.122;9.952;2022-07-23T02:37:03;100742.63;;;15.43;94.89
13705;BME280;6924;52.122;9.952;2022-07-23T02:39:29;100735.19;;;15.51;95.29
13705;BME280;6924;52.122;9.952;2022-07-23T02:41:56;100741.59;;;15.48;95.31
13705;BME280;6924;52.122;9.952;2022-07-23T02:44:22;100742.97;;;15.42;95.84
13705;BME280;6924;52.122;9.952;2022-07-23T02:46:48;100743.28;;;15.40;95.83
13705;BME280;6924;52.122;9.952;2022-07-23T02:49:16;100741.94;;;15.46;95.53
13705;BME280;6924;52.122;9.952;2022-07-23T02:51:43;100740.25;;;15.45;95.50
13705;BME280;6924;52.122;9.952;2022-07-23T02:54:09;100741.09;;;15.46;95.72
13705;BME280;6924;52.122;9.952;2022-07-23T02:56:35;100737.41;;;15.45;95.68
13705;BME280;6924;52.122;9.952;2022-07-23T02:59:02;100747.78;;;15.50;96.31
13705;BME280;6924;52.122;9.952;2022-07-23T03:01:28;100747.78;;;15.50;95.91
13705;BME280;6924;52.122;9.952;2022-07-23T03:03:55;100746.25;;;15.53;95.69
13705;BME280;6924;52.122;9.952;2022-07-23T03:06:23;100747.44;;;15.52;95.73
13705;BME280;6924;52.122;9.952;2022-07-23T03:08:49;100758.00;;;15.51;94.69
13705;BME280;6924;52.122;9.952;2022-07-23T03:11:16;100745.56;;;15.56;94.83
13705;BME280;6924;52.122;9.952;2022-07-23T03:13:42;100751.25;;;15.56;94.16
13705;BME280;6924;52.122;9.952;2022-07-23T03:16:09;100746.38;;;15.56;92.98
13705;BME280;6924;52.122;9.952;2022-07-23T03:18:35;100744.03;;;15.58;93.13
13705;BME280;6924;52.122;9.952;2022-07-23T03:21:02;100737.84;;;15.56;93.78
13705;BME280;6924;52.122;9.952;2022-07-23T03:23:30;100741.38;;;15.53;93.48
13705;BME280;6924;52.122;9.952;2022-07-23T03:25:56;100744.94;;;15.50;93.07
13705;BME280;6924;52.122;9.952;2022-07-23T03:28:23;100748.94;;;15.49;93.79
13705;BME280;6924;52.122;9.952;2022-07-23T03:30:50;100735.53;;;15.49;94.89
13705;BME280;6924;52.122;9.952;2022-07-23T03:33:17;100742.09;;;15.50;95.36
13705;BME280;6924;52.122;9.952;2022-07-23T03:35:44;100737.72;;;15.53;95.66
13705;BME280;6924;52.122;9.952;2022-07-23T03:38:11;100720.78;;;15.47;96.16
13705;BME280;6924;52.122;9.952;2022-07-23T03:40:39;100714.06;;;15.52;96.61
13705;BME280;6924;52.122;9.952;2022-07-23T03:43:05;100699.81;;;15.52;97.01
13705;BME280;6924;52.122;9.952;2022-07-23T03:45:32;100698.63;;;15.53;97.62
13705;BME280;6924;52.122;9.952;2022-07-23T03:47:59;100695.56;;;15.58;97.63
13705;BME280;6924;52.122;9.952;2022-07-23T03:50:25;100704.81;;;15.55;97.55
13705;BME280;6924;52.122;9.952;2022-07-23T03:52:52;100727.28;;;15.57;97.62
13705;BME280;6924;52.122;9.952;2022-07-23T03:55:19;100728.13;;;15.57;98.30
13705;BME280;6924;52.122;9.952;2022-07-23T03:57:47;100729.78;;;15.58;99.09
13705;BME280;6924;52.122;9.952;2022-07-23T04:00:14;100733.94;;;15.61;99.48
13705;BME280;6924;52.122;9.952;2022-07-23T04:02:40;100730.28;;;15.60;99.98
13705;BME280;6924;52.122;9.952;2022-07-23T04:05:07;100717.34;;;15.63;100.00
13705;BME280;6924;52.122;9.952;2022-07-23T04:07:34;100715.34;;;15.63;100.00
13705;BME280;6924;52.122;9.952;2022-07-23T04:10:00;100719.56;;;15.57;100.00
13705;BME280;6924;52.122;9.952;2022-07-23T04:12:26;100705.31;;;15.57;100.00
13705;BME280;6924;52.122;9.952;2022-07-23T04:14:54;100701.97;;;15.55;100.00
13705;BME280;6924;52.122;9.952;2022-07-23T04:17:21;100705.44;;;15.61;100.00
13705;BME280;6924;52.122;9.952;2022-07-23T04:19:47;100702.75;;;15.64;100.00
13705;BME280;6924;52.122;9.952;2022-07-23T04:22:14;100698.41;;;15.58;100.00
13705;BME280;6924;52.122;9.952;2022-07-23T04:24:40;100704.34;;;15.53;100.00
13705;BME280;6924;52.122;9.952;2022-07-23T04:27:07;100712.19;;;15.56;100.00
13705;BME280;6924;52.122;9.952;2022-07-23T04:29:33;100705.31;;;15.57;100.00
13705;BME280;6924;52.122;9.952;2022-07-23T04:32:01;100691.72;;;15.54;100.00
13705;BME280;6924;52.122;9.952;2022-07-23T04:34:27;100689.25;;;15.53;100.00
13705;BME280;6924;52.122;9.952;2022-07-23T04:36:54;100699.28;;;15.59;100.00
13705;BME280;6924;52.122;9.952;2022-07-23T04:39:20;100712.81;;;15.62;100.00
13705;BME280;6924;52.122;9.952;2022-07-23T04:41:47;100721.88;;;15.64;100.00
13705;BME280;6924;52.122;9.952;2022-07-23T04:44:13;100724.03;;;15.67;100.00
13705;BME280;6924;52.122;9.952;2022-07-23T04:46:40;100727.88;;;15.71;100.00
13705;BME280;6924;52.122;9.952;2022-07-23T04:49:08;100727.69;;;15.76;100.00
13705;BME280;6924;52.122;9.952;2022-07-23T04:51:34;100741.81;;;15.73;100.00
13705;BME280;6924;52.122;9.952;2022-07-23T04:54:01;100738.97;;;15.73;100.00
13705;BME280;6924;52.122;9.952;2022-07-23T04:56:27;100750.66;;;15.80;100.00
13705;BME280;6924;52.122;9.952;2022-07-23T04:58:54;100744.13;;;15.79;100.00
13705;BME280;6924;52.122;9.952;2022-07-23T05:01:20;100749.81;;;15.79;100.00
13705;BME280;6924;52.122;9.952;2022-07-23T05:03:47;100743.06;;;15.84;100.00
13705;BME280;6924;52.122;9.952;2022-07-23T05:06:15;100752.13;;;15.86;100.00
13705;BME280;6924;52.122;9.952;2022-07-23T05:08:41;100753.09;;;15.90;100.00
13705;BME280;6924;52.122;9.952;2022-07-23T05:11:08;100743.84;;;15.93;100.00
13705;BME280;6924;52.122;9.952;2022-07-23T05:13:34;100744.66;;;15.94;100.00
13705;BME280;6924;52.122;9.952;2022-07-23T05:16:01;100746.69;;;15.93;100.00
13705;BME280;6924;52.122;9.952;2022-07-23T05:18:27;100745.16;;;15.96;100.00
13705;BME280;6924;52.122;9.952;2022-07-23T05:20:54;100744.81;;;15.97;100.00
13705;BME280;6924;52.122;9.952;2022-07-23T05:23:21;100739.44;;;15.96;100.00
13705;BME280;6924;52.122;9.952;2022-07-23T05:25:48;100739.44;;;15.96;100.00
13705;BME280;6924;52.122;9.952;2022-07-23T05:28:15;100742.13;;;16.01;100.00
13705;BME280;6924;52.122;9.952;2022-07-23T05:30:41;100746.41;;;16.07;100.00
13705;BME280;6924;52.122;9.952;2022-07-23T05:33:08;100744.69;;;16.15;100.00
13705;BME280;6924;52.122;9.952;2022-07-23T05:35:34;100746.63;;;16.23;100.00
13705;BME280;6924;52.122;9.952;2022-07-23T05:38:00;100742.25;;;16.25;100.00
13705;BME280;6924;52.122;9.952;2022-07-23T05:40:28;100748.28;;;16.24;100.00
13705;BME280;6924;52.122;9.952;2022-07-23T05:42:55;100747.97;;;16.25;100.00
13705;BME280;6924;52.122;9.952;2022-07-23T05:45:21;100755.47;;;16.30;100.00
13705;BME280;6924;52.122;9.952;2022-07-23T05:47:48;100754.25;;;16.31;100.00
13705;BME280;6924;52.122;9.952;2022-07-23T05:50:16;100752.16;;;16.40;99.94
13705;BME280;6924;52.122;9.952;2022-07-23T05:52:42;100747.91;;;16.46;99.60
13705;BME280;6924;52.122;9.952;2022-07-23T05:55:10;100750.56;;;16.51;98.24
13705;BME280;6924;52.122;9.952;2022-07-23T05:57:39;100747.97;;;16.59;96.76
13705;BME280;6924;52.122;9.952;2022-07-23T06:00:07;100747.41;;;16.65;96.69
13705;BME280;6924;52.122;9.952;2022-07-23T06:02:34;100748.47;;;16.73;97.54
13705;BME280;6924;52.122;9.952;2022-07-23T06:05:01;100746.41;;;16.82;97.67
13705;BME280;6924;52.122;9.952;2022-07-23T06:07:27;100747.34;;;16.86;97.50
13705;BME280;6924;52.122;9.952;2022-07-23T06:09:54;100745.59;;;16.94;94.05
13705;BME280;6924;52.122;9.952;2022-07-23T06:12:20;100748.59;;;16.98;93.65
13705;BME280;6924;52.122;9.952;2022-07-23T06:14:48;100751.47;;;17.10;95.61
13705;BME280;6924;52.122;9.952;2022-07-23T06:17:17;100756.44;;;17.01;91.18
13705;BME280;6924;52.122;9.952;2022-07-23T06:19:43;100757.19;;;17.10;90.08
13705;BME280;6924;52.122;9.952;2022-07-23T06:22:10;100752.91;;;17.16;90.00
13705;BME280;6924;52.122;9.952;2022-07-23T06:24:36;100750.78;;;17.25;89.54
13705;BME280;6924;52.122;9.952;2022-07-23T06:27:03;100746.59;;;17.35;91.26
13705;BME280;6924;52.122;9.952;2022-07-23T06:29:29;100747.56;;;17.39;92.42
13705;BME280;6924;52.122;9.952;2022-07-23T06:31:57;100752.47;;;17.51;90.22
13705;BME280;6924;52.122;9.952;2022-07-23T06:34:24;100753.88;;;17.57;88.60
13705;BME280;6924;52.122;9.952;2022-07-23T06:36:50;100758.19;;;17.51;87.68
13705;BME280;6924;52.122;9.952;2022-07-23T06:39:16;100759.22;;;17.59;86.35
13705;BME280;6924;52.122;9.952;2022-07-23T06:41:43;100768.28;;;17.61;84.06
13705;BME280;6924;52.122;9.952;2022-07-23T06:44:09;100765.31;;;17.69;86.36
13705;BME280;6924;52.122;9.952;2022-07-23T06:46:36;100756.25;;;17.67;83.50
13705;BME280;6924;52.122;9.952;2022-07-23T06:49:03;100759.25;;;17.71;82.47
13705;BME280;6924;52.122;9.952;2022-07-23T06:51:30;100761.38;;;17.74;82.97
13705;BME280;6924;52.122;9.952;2022-07-23T06:53:57;100756.13;;;17.76;82.45
13705;BME280;6924;52.122;9.952;2022-07-23T06:56:24;100764.47;;;17.81;81.03
13705;BME280;6924;52.122;9.952;2022-07-23T06:58:50;100758.91;;;17.85;82.17
13705;BME280;6924;52.122;9.952;2022-07-23T07:01:17;100758.91;;;17.85;79.00
13705;BME280;6924;52.122;9.952;2022-07-23T07:03:43;100754.81;;;17.98;79.48
13705;BME280;6924;52.122;9.952;2022-07-23T07:06:11;100763.88;;;17.88;79.61
13705;BME280;6924;52.122;9.952;2022-07-23T07:08:38;100770.34;;;17.85;79.28
13705;BME280;6924;52.122;9.952;2022-07-23T07:11:04;100772.94;;;17.90;79.29
13705;BME280;6924;52.122;9.952;2022-07-23T07:13:30;100774.38;;;18.08;79.88
13705;BME280;6924;52.122;9.952;2022-07-23T07:15:57;100771.50;;;18.08;78.33
13705;BME280;6924;52.122;9.952;2022-07-23T07:18:23;100777.09;;;18.05;76.87
13705;BME280;6924;52.122;9.952;2022-07-23T07:20:50;100780.09;;;18.08;76.76
13705;BME280;6924;52.122;9.952;2022-07-23T07:23:17;100786.28;;;18.10;77.04
13705;BME280;6924;52.122;9.952;2022-07-23T07:25:45;100789.16;;;17.98;76.28
13705;BME280;6924;52.122;9.952;2022-07-23T07:28:12;100785.13;;;17.99;75.45
13705;BME280;6924;52.122;9.952;2022-07-23T07:30:38;100790.91;;;18.15;75.20
13705;BME280;6924;52.122;9.952;2022-07-23T07:33:05;100788.28;;;18.22;74.75
13705;BME280;6924;52.122;9.952;2022-07-23T07:35:31;100789.56;;;18.25;75.75
13705;BME280;6924;52.122;9.952;2022-07-23T07:37:58;100794.69;;;18.31;75.82
13705;BME280;6924;52.122;9.952;2022-07-23T07:40:26;100792.78;;;18.35;73.99
13705;BME280;6924;52.122;9.952;2022-07-23T07:42:54;100787.16;;;18.39;72.80
13705;BME280;6924;52.122;9.952;2022-07-23T07:45:22;100787.03;;;18.35;72.15
13705;BME280;6924;52.122;9.952;2022-07-23T07:47:49;100795.75;;;18.39;71.55
13705;BME280;6924;52.122;9.952;2022-07-23T07:50:16;100801.81;;;18.50;71.65
13705;BME280;6924;52.122;9.952;2022-07-23T07:52:42;100800.59;;;18.51;70.48
13705;BME280;6924;52.122;9.952;2022-07-23T07:55:10;100806.28;;;18.63;70.62
13705;BME280;6924;52.122;9.952;2022-07-23T07:57:38;100816.00;;;18.87;71.88
13705;BME280;6924;52.122;9.952;2022-07-23T08:00:07;100807.19;;;19.08;72.36
13705;BME280;6924;52.122;9.952;2022-07-23T08:02:40;100811.53;;;19.17;70.17
13705;BME280;6924;52.122;9.952;2022-07-23T08:05:07;100812.19;;;19.27;69.50
13705;BME280;6924;52.122;9.952;2022-07-23T08:07:34;100813.41;;;19.41;67.87
13705;BME280;6924;52.122;9.952;2022-07-23T08:10:00;100817.03;;;19.38;67.06
13705;BME280;6924;52.122;9.952;2022-07-23T08:12:27;100801.88;;;19.38;67.22
13705;BME280;6924;52.122;9.952;2022-07-23T08:14:54;100811.13;;;19.47;65.28
13705;BME280;6924;52.122;9.952;2022-07-23T08:17:21;100810.81;;;19.52;66.69
13705;BME280;6924;52.122;9.952;2022-07-23T08:19:47;100809.34;;;19.58;67.17
13705;BME280;6924;52.122;9.952;2022-07-23T08:22:14;100814.19;;;19.70;67.57
13705;BME280;6924;52.122;9.952;2022-07-23T08:24:40;100822.59;;;19.79;67.00
13705;BME280;6924;52.122;9.952;2022-07-23T08:27:06;100823.25;;;19.72;65.06
13705;BME280;6924;52.122;9.952;2022-07-23T08:29:33;100815.66;;;19.80;64.63
13705;BME280;6924;52.122;9.952;2022-07-23T08:32:01;100817.13;;;19.90;64.00
13705;BME280;6924;52.122;9.952;2022-07-23T08:34:27;100821.09;;;20.01;64.01
13705;BME280;6924;52.122;9.952;2022-07-23T08:36:54;100832.56;;;20.01;64.42
13705;BME280;6924;52.122;9.952;2022-07-23T08:39:20;100816.38;;;20.09;62.96
13705;BME280;6924;52.122;9.952;2022-07-23T08:44:15;100817.50;;;20.23;62.69
13705;BME280;6924;52.122;9.952;2022-07-23T08:46:43;100819.34;;;20.32;62.19
13705;BME280;6924;52.122;9.952;2022-07-23T08:49:12;100821.59;;;20.22;62.51
13705;BME280;6924;52.122;9.952;2022-07-23T08:51:39;100820.56;;;20.31;63.35
13705;BME280;6924;52.122;9.952;2022-07-23T08:54:06;100819.44;;;20.35;61.15
13705;BME280;6924;52.122;9.952;2022-07-23T08:56:33;100823.13;;;20.36;62.45
13705;BME280;6924;52.122;9.952;2022-07-23T08:59:01;100828.78;;;20.32;62.74
13705;BME280;6924;52.122;9.952;2022-07-23T09:01:27;100828.34;;;20.30;62.65
13705;BME280;6924;52.122;9.952;2022-07-23T09:03:53;100820.47;;;20.27;63.23
13705;BME280;6924;52.122;9.952;2022-07-23T09:06:21;100821.81;;;20.14;62.46
13705;BME280;6924;52.122;9.952;2022-07-23T09:08:48;100823.59;;;20.02;63.04
13705;BME280;6924;52.122;9.952;2022-07-23T09:11:16;100825.44;;;20.11;61.76
13705;BME280;6924;52.122;9.952;2022-07-23T09:13:47;100821.06;;;20.17;60.43
13705;BME280;6924;52.122;9.952;2022-07-23T09:16:16;100819.03;;;20.37;61.80
13705;BME280;6924;52.122;9.952;2022-07-23T09:18:45;100827.50;;;20.30;61.21
13705;BME280;6924;52.122;9.952;2022-07-23T09:21:22;100829.81;;;20.40;62.45
13705;BME280;6924;52.122;9.952;2022-07-23T09:23:52;100825.84;;;20.48;60.51
13705;BME280;6924;52.122;9.952;2022-07-23T09:26:24;100827.22;;;20.54;61.28
13705;BME280;6924;52.122;9.952;2022-07-23T09:28:53;100837.91;;;20.54;61.38
13705;BME280;6924;52.122;9.952;2022-07-23T09:31:21;100833.38;;;20.53;61.28
13705;BME280;6924;52.122;9.952;2022-07-23T09:33:48;100835.97;;;20.58;59.75
13705;BME280;6924;52.122;9.952;2022-07-23T09:36:14;100830.56;;;20.56;59.82
13705;BME280;6924;52.122;9.952;2022-07-23T09:38:50;100838.31;;;20.72;59.89
13705;BME280;6924;52.122;9.952;2022-07-23T09:41:17;100824.09;;;20.79;58.84
13705;BME280;6924;52.122;9.952;2022-07-23T09:43:44;100833.56;;;20.99;58.11
13705;BME280;6924;52.122;9.952;2022-07-23T09:46:21;100821.78;;;21.08;57.77
13705;BME280;6924;52.122;9.952;2022-07-23T09:48:48;100830.03;;;21.29;57.17
13705;BME280;6924;52.122;9.952;2022-07-23T09:51:16;100822.13;;;21.45;55.47
13705;BME280;6924;52.122;9.952;2022-07-23T09:53:44;100816.56;;;21.56;56.28
13705;BME280;6924;52.122;9.952;2022-07-23T09:56:13;100804.56;;;21.50;55.03
13705;BME280;6924;52.122;9.952;2022-07-23T09:58:41;100819.00;;;21.54;55.13
13705;BME280;6924;52.122;9.952;2022-07-23T10:01:13;100814.84;;;21.51;56.26
13705;BME280;6924;52.122;9.952;2022-07-23T10:03:40;100817.16;;;21.42;54.25
13705;BME280;6924;52.122;9.952;2022-07-23T10:06:08;100821.31;;;21.25;55.15
13705;BME280;6924;52.122;9.952;2022-07-23T10:08:34;100826.63;;;21.23;54.50
13705;BME280;6924;52.122;9.952;2022-07-23T10:11:01;100825.56;;;21.12;54.27
13705;BME280;6924;52.122;9.952;2022-07-23T10:13:29;100819.84;;;20.92;55.50
13705;BME280;6924;52.122;9.952;2022-07-23T10:16:22;100816.00;;;20.65;54.43
13705;BME280;6924;52.122;9.952;2022-07-23T10:18:49;100814.72;;;20.82;56.25
13705;BME280;6924;52.122;9.952;2022-07-23T10:21:21;100825.19;;;20.90;55.61
13705;BME280;6924;52.122;9.952;2022-07-23T10:24:00;100819.25;;;20.83;55.28
13705;BME280;6924;52.122;9.952;2022-07-23T10:26:35;100817.97;;;20.80;55.30
13705;BME280;6924;52.122;9.952;2022-07-23T10:29:13;100824.41;;;20.93;56.45
13705;BME280;6924;52.122;9.952;2022-07-23T10:31:52;100823.84;;;21.07;55.70
13705;BME280;6924;52.122;9.952;2022-07-23T10:34:25;100826.47;;;21.16;53.10
13705;BME280;6924;52.122;9.952;2022-07-23T10:36:58;100821.78;;;21.08;54.99
13705;BME280;6924;52.122;9.952;2022-07-23T10:39:28;100818.97;;;21.31;54.83
13705;BME280;6924;52.122;9.952;2022-07-23T10:42:09;100823.81;;;21.46;54.64
13705;BME280;6924;52.122;9.952;2022-07-23T10:44:40;100827.56;;;21.73;52.56
13705;BME280;6924;52.122;9.952;2022-07-23T10:47:08;100823.66;;;21.85;52.10
13705;BME280;6924;52.122;9.952;2022-07-23T10:49:45;100827.09;;;21.94;51.35
13705;BME280;6924;52.122;9.952;2022-07-23T10:52:19;100824.22;;;21.94;52.48
13705;BME280;6924;52.122;9.952;2022-07-23T10:54:48;100821.66;;;21.89;51.86
13705;BME280;6924;52.122;9.952;2022-07-23T10:57:16;100824.16;;;21.91;54.14
13705;BME280;6924;52.122;9.952;2022-07-23T11:00:16;100815.59;;;21.94;52.34
13705;BME280;6924;52.122;9.952;2022-07-23T11:02:45;100814.38;;;22.22;50.17
13705;BME280;6924;52.122;9.952;2022-07-23T11:05:13;100806.44;;;22.42;52.26
13705;BME280;6924;52.122;9.952;2022-07-23T11:08:12;100810.84;;;22.62;50.75
13705;BME280;6924;52.122;9.952;2022-07-23T11:10:41;100808.56;;;22.79;51.09
13705;BME280;6924;52.122;9.952;2022-07-23T11:13:35;100807.19;;;22.65;50.23
13705;BME280;6924;52.122;9.952;2022-07-23T11:16:14;100804.06;;;22.81;50.81
13705;BME280;6924;52.122;9.952;2022-07-23T11:19:03;100809.50;;;22.86;47.68
13705;BME280;6924;52.122;9.952;2022-07-23T11:21:47;100800.59;;;22.65;49.63
13705;BME280;6924;52.122;9.952;2022-07-23T11:24:17;100803.50;;;22.68;49.27
13705;BME280;6924;52.122;9.952;2022-07-23T11:26:45;100792.66;;;22.92;51.34
13705;BME280;6924;52.122;9.952;2022-07-23T11:29:38;100791.28;;;22.79;47.97
13705;BME280;6924;52.122;9.952;2022-07-23T11:32:08;100795.63;;;22.99;48.23
13705;BME280;6924;52.122;9.952;2022-07-23T11:34:45;100795.16;;;23.27;49.27
13705;BME280;6924;52.122;9.952;2022-07-23T11:37:27;100794.38;;;23.30;46.41
13705;BME280;6924;52.122;9.952;2022-07-23T11:39:54;100802.59;;;23.28;46.82
13705;BME280;6924;52.122;9.952;2022-07-23T11:42:21;100796.50;;;23.41;45.51
13705;BME280;6924;52.122;9.952;2022-07-23T11:44:49;100800.03;;;23.20;45.34
13705;BME280;6924;52.122;9.952;2022-07-23T11:47:22;100799.41;;;23.03;47.68
13705;BME280;6924;52.122;9.952;2022-07-23T11:49:53;100796.56;;;22.73;48.86
13705;BME280;6924;52.122;9.952;2022-07-23T11:52:20;100796.03;;;22.64;49.39
13705;BME280;6924;52.122;9.952;2022-07-23T11:54:49;100796.03;;;22.64;48.21
13705;BME280;6924;52.122;9.952;2022-07-23T11:57:16;100803.78;;;22.60;47.89
13705;BME280;6924;52.122;9.952;2022-07-23T11:59:43;100791.34;;;22.82;48.36
13705;BME280;6924;52.122;9.952;2022-07-23T12:02:11;100796.78;;;22.91;48.64
13705;BME280;6924;52.122;9.952;2022-07-23T12:04:42;100798.88;;;22.94;47.83
13705;BME280;6924;52.122;9.952;2022-07-23T12:07:29;100801.25;;;22.85;49.73
13705;BME280;6924;52.122;9.952;2022-07-23T12:09:57;100796.44;;;22.96;47.21
13705;BME280;6924;52.122;9.952;2022-07-23T12:12:24;100797.41;;;23.07;47.73
13705;BME280;6924;52.122;9.952;2022-07-23T12:14:52;100809.00;;;23.11;46.93
13705;BME280;6924;52.122;9.952;2022-07-23T12:17:20;100805.69;;;23.13;46.31
13705;BME280;6924;52.122;9.952;2022-07-23T12:19:48;100798.34;;;23.19;46.25
13705;BME280;6924;52.122;9.952;2022-07-23T12:22:15;100803.44;;;22.95;47.11
13705;BME280;6924;52.122;9.952;2022-07-23T12:24:58;100802.44;;;22.84;48.13
13705;BME280;6924;52.122;9.952;2022-07-23T12:27:25;100790.47;;;22.82;48.42
13705;BME280;6924;52.122;9.952;2022-07-23T12:29:53;100799.69;;;22.95;47.23
13705;BME280;6924;52.122;9.952;2022-07-23T12:32:21;100793.78;;;22.84;46.92
13705;BME280;6924;52.122;9.952;2022-07-23T12:35:00;100799.84;;;22.72;46.52
13705;BME280;6924;52.122;9.952;2022-07-23T12:37:29;100797.97;;;22.86;47.43
13705;BME280;6924;52.122;9.952;2022-07-23T12:39:56;100796.88;;;22.98;47.78
13705;BME280;6924;52.122;9.952;2022-07-23T12:42:23;100799.69;;;22.95;46.99
13705;BME280;6924;52.122;9.952;2022-07-23T12:45:07;100794.88;;;23.02;47.12
13705;BME280;6924;52.122;9.952;2022-07-23T12:47:57;100794.06;;;23.02;47.82
13705;BME280;6924;52.122;9.952;2022-07-23T12:50:51;100796.22;;;22.78;47.53
13705;BME280;6924;52.122;9.952;2022-07-23T12:53:20;100798.44;;;22.92;48.54
13705;BME280;6924;52.122;9.952;2022-07-23T12:55:48;100800.44;;;22.88;48.67
13705;BME280;6924;52.122;9.952;2022-07-23T12:58:16;100808.50;;;22.72;48.26
13705;BME280;6924;52.122;9.952;2022-07-23T13:00:51;100799.53;;;22.80;49.12
13705;BME280;6924;52.122;9.952;2022-07-23T13:03:26;100803.59;;;22.76;47.95
13705;BME280;6924;52.122;9.952;2022-07-23T13:05:55;100798.81;;;22.87;48.79
13705;BME280;6924;52.122;9.952;2022-07-23T13:08:22;100796.53;;;23.03;48.56